Time;durP1;ratioP1;P1;durP2;ratioP2;P2;SDS_P1;SDS_P2;PMS_P1;PMS_P2;Temp;Humidity;BMP_temperature;BMP_pressure;BME280_temperature;BME280_humidity;BME280_pressure;Samples;Min_cycle;Max_cycle;Signal;HPM_P1;HPM_P2
2022/04/26 03:36:08;;;;;;;9.73;6.45;;;;;;;;;;5031998;28;20399;-74
2022/04/26 03:38:34;;;;;;;10.20;7.40;;;;;;;;;;5032609;28;20428;-74
2022/04/26 03:41:00;;;;;;;13.35;8.43;;;;;;;;;;5032388;28;20159;-73
2022/04/26 03:43:25;;;;;;;10.20;6.72;;;;;;;;;;5032565;28;20057;-73
2022/04/26 03:45:52;;;;;;;10.30;6.80;;;;;;;;;;5032480;28;20022;-73
2022/04/26 03:48:18;;;;;;;9.27;7.22;;;;;;;;;;5032186;28;20424;-72
2022/04/26 03:50:43;;;;;;;11.18;7.53;;;;;;;;;;5032378;28;20112;-73
2022/04/26 03:53:08;;;;;;;10.63;7.85;;;;;;;;;;5032346;28;20028;-73
2022/04/26 03:55:34;;;;;;;10.40;7.95;;;;;;;;;;5032167;28;20040;-73
2022/04/26 03:58:00;;;;;;;12.55;7.70;;;;;;;;;;5032213;28;20025;-74
2022/04/26 04:00:26;;;;;;;11.95;8.48;;;;;;;;;;5031011;28;20029;-73
2022/04/26 04:02:51;;;;;;;13.10;8.60;;;;;;;;;;5032269;28;20443;-73
2022/04/26 04:05:17;;;;;;;12.95;8.45;;;;;;;;;;5030882;28;20028;-73
2022/04/26 04:07:42;;;;;;;12.35;9.18;;;;;;;;;;5032068;28;20061;-73
2022/04/26 04:10:08;;;;;;;13.38;9.63;;;;;;;;;;5031961;28;20033;-74
2022/04/26 04:12:33;;;;;;;12.65;8.30;;;;;;;;;;5032506;28;20053;-74
2022/04/26 04:14:58;;;;;;;11.90;8.55;;;;;;;;;;5032067;28;20661;-74
2022/04/26 04:17:24;;;;;;;13.35;8.80;;;;;;;;;;5032044;28;20032;-73
2022/04/26 04:19:49;;;;;;;15.05;9.93;;;;;;;;;;5031709;28;20030;-72
2022/04/26 04:22:14;;;;;;;15.00;9.60;;;;;;;;;;5031874;28;20021;-73
2022/04/26 04:24:40;;;;;;;14.75;9.85;;;;;;;;;;5031724;28;20025;-73
2022/04/26 04:27:06;;;;;;;14.23;8.95;;;;;;;;;;5031576;28;20029;-74
2022/04/26 04:29:31;;;;;;;13.45;8.90;;;;;;;;;;5031451;28;20025;-73
2022/04/26 04:31:56;;;;;;;15.90;10.00;;;;;;;;;;5031553;28;20025;-73
2022/04/26 04:34:22;;;;;;;16.45;9.43;;;;;;;;;;5031627;28;20026;-73
2022/04/26 04:36:49;;;;;;;15.63;8.75;;;;;;;;;;5031606;28;20030;-73
2022/04/26 04:39:19;;;;;;;12.13;7.22;;;;;;;;;;5031269;28;20033;-73
2022/04/26 04:41:46;;;;;;;7.20;5.22;;;;;;;;;;5031847;28;20060;-73
2022/04/26 04:44:11;;;;;;;8.35;5.80;;;;;;;;;;5031700;28;20025;-73
2022/04/26 04:46:36;;;;;;;9.43;6.57;;;;;;;;;;5031325;28;20030;-73
2022/04/26 04:49:02;;;;;;;10.32;6.93;;;;;;;;;;5031161;28;20021;-73
2022/04/26 04:51:28;;;;;;;11.20;7.38;;;;;;;;;;5031421;28;20405;-73
2022/04/26 04:53:54;;;;;;;10.65;7.43;;;;;;;;;;5031140;28;20013;-74
2022/04/26 04:56:19;;;;;;;9.07;6.20;;;;;;;;;;5031140;28;20037;-74
2022/04/26 04:58:44;;;;;;;11.48;7.07;;;;;;;;;;5030981;28;20031;-74
2022/04/26 05:01:10;;;;;;;8.05;5.95;;;;;;;;;;5031270;28;20021;-74
2022/04/26 05:03:35;;;;;;;9.52;6.38;;;;;;;;;;5031250;28;20025;-74
2022/04/26 05:06:00;;;;;;;7.78;4.32;;;;;;;;;;5031577;28;20421;-74
2022/04/26 05:08:26;;;;;;;6.07;4.20;;;;;;;;;;5030448;28;20044;-73
2022/04/26 05:10:52;;;;;;;6.13;4.20;;;;;;;;;;5031077;28;20025;-73
2022/04/26 05:13:17;;;;;;;5.72;4.57;;;;;;;;;;5031071;28;20032;-74
2022/04/26 05:15:44;;;;;;;8.38;6.20;;;;;;;;;;5031073;28;20120;-73
2022/04/26 05:18:11;;;;;;;11.88;6.75;;;;;;;;;;5030803;28;20030;-74
2022/04/26 05:20:37;;;;;;;7.53;4.72;;;;;;;;;;5029501;28;20029;-74
2022/04/26 05:25:46;;;;;;;5.43;3.40;;;;;;;;;;5031930;28;20032;-74
2022/04/26 05:28:11;;;;;;;5.93;4.03;;;;;;;;;;5030263;28;20296;-74
2022/04/26 05:30:37;;;;;;;4.82;3.50;;;;;;;;;;5030408;28;20029;-74
2022/04/26 05:33:02;;;;;;;5.55;3.83;;;;;;;;;;5030394;28;20029;-74
2022/04/26 05:35:27;;;;;;;6.55;3.95;;;;;;;;;;5030328;28;20032;-74
2022/04/26 05:37:53;;;;;;;6.20;3.55;;;;;;;;;;5030044;28;20136;-74
2022/04/26 05:40:18;;;;;;;6.80;3.85;;;;;;;;;;5030309;28;20025;-74
2022/04/26 05:42:43;;;;;;;5.45;3.40;;;;;;;;;;5030102;28;20108;-75
2022/04/26 05:45:09;;;;;;;6.38;3.55;;;;;;;;;;5030253;28;20114;-74
2022/04/26 05:47:40;;;;;;;5.97;3.72;;;;;;;;;;5030170;28;20037;-74
2022/04/26 05:50:06;;;;;;;6.82;3.70;;;;;;;;;;5029958;28;20490;-74
2022/04/26 05:52:32;;;;;;;7.00;3.40;;;;;;;;;;5030252;28;20352;-73
2022/04/26 05:54:58;;;;;;;6.10;3.72;;;;;;;;;;5030321;28;20252;-72
2022/04/26 05:57:23;;;;;;;10.35;3.75;;;;;;;;;;5030197;28;20479;-72
2022/04/26 05:59:49;;;;;;;10.27;5.18;;;;;;;;;;5028389;28;20047;-72
2022/04/26 06:02:14;;;;;;;6.60;3.80;;;;;;;;;;5020720;28;20435;-71
2022/04/26 06:04:39;;;;;;;6.63;4.30;;;;;;;;;;5026560;28;20034;-71
2022/04/26 06:07:05;;;;;;;7.90;4.30;;;;;;;;;;5027817;28;20022;-71
2022/04/26 06:09:31;;;;;;;13.73;8.90;;;;;;;;;;5024470;28;20039;-72
2022/04/26 06:11:57;;;;;;;15.15;9.55;;;;;;;;;;5020632;28;20026;-71
2022/04/26 06:14:23;;;;;;;7.15;4.72;;;;;;;;;;5026518;28;20104;-72
2022/04/26 06:16:48;;;;;;;8.05;4.43;;;;;;;;;;5025556;28;20499;-72
2022/04/26 06:19:13;;;;;;;4.22;3.15;;;;;;;;;;5024429;28;20021;-72
2022/04/26 06:21:39;;;;;;;6.55;3.40;;;;;;;;;;5026132;28;20030;-72
2022/04/26 06:24:04;;;;;;;7.32;4.10;;;;;;;;;;5025905;28;20030;-72
2022/04/26 06:26:30;;;;;;;5.45;3.90;;;;;;;;;;5026262;28;20099;-73
2022/04/26 06:28:56;;;;;;;5.10;4.10;;;;;;;;;;5024308;28;20040;-72
2022/04/26 06:31:21;;;;;;;6.88;4.32;;;;;;;;;;5024590;28;20017;-72
2022/04/26 06:33:46;;;;;;;7.15;5.88;;;;;;;;;;5025635;28;20026;-72
2022/04/26 06:36:11;;;;;;;7.35;5.10;;;;;;;;;;5026763;28;20099;-72
2022/04/26 06:38:37;;;;;;;7.07;4.82;;;;;;;;;;5023502;28;20106;-71
2022/04/26 06:41:02;;;;;;;8.18;5.28;;;;;;;;;;5022798;28;20032;-71
2022/04/26 06:43:32;;;;;;;7.03;4.97;;;;;;;;;;5021475;28;20029;-72
2022/04/26 06:45:57;;;;;;;7.22;4.75;;;;;;;;;;5023256;28;20021;-70
2022/04/26 06:48:23;;;;;;;8.75;5.50;;;;;;;;;;5022664;28;20510;-71
2022/04/26 06:50:49;;;;;;;8.30;5.70;;;;;;;;;;5020811;28;20036;-71
2022/04/26 06:53:14;;;;;;;8.75;6.50;;;;;;;;;;5021566;28;20026;-72
2022/04/26 06:55:40;;;;;;;7.70;5.57;;;;;;;;;;5023519;28;20507;-71
2022/04/26 06:58:06;;;;;;;16.92;11.63;;;;;;;;;;5022171;28;20501;-70
2022/04/26 07:00:31;;;;;;;8.50;5.07;;;;;;;;;;5022180;28;20452;-70
2022/04/26 07:02:57;;;;;;;13.25;6.63;;;;;;;;;;5019401;28;20045;-71
2022/04/26 07:05:22;;;;;;;8.25;6.40;;;;;;;;;;5021531;28;20021;-71
2022/04/26 07:07:52;;;;;;;9.30;6.43;;;;;;;;;;5023370;28;20443;-71
2022/04/26 07:10:18;;;;;;;9.60;4.95;;;;;;;;;;5021732;28;20083;-71
2022/04/26 07:12:43;;;;;;;9.00;4.80;;;;;;;;;;5029618;28;20034;-72
2022/04/26 07:15:08;;;;;;;8.35;4.63;;;;;;;;;;5028267;28;20114;-71
2022/04/26 07:17:38;;;;;;;6.40;4.32;;;;;;;;;;5024098;28;20047;-71
2022/04/26 07:20:04;;;;;;;5.60;4.43;;;;;;;;;;5024571;28;20025;-72
2022/04/26 07:22:29;;;;;;;5.78;4.13;;;;;;;;;;5024010;28;20326;-71
2022/04/26 07:24:56;;;;;;;6.55;3.80;;;;;;;;;;5024566;28;20021;-71
2022/04/26 07:27:22;;;;;;;7.00;3.83;;;;;;;;;;5026595;28;20013;-71
2022/04/26 07:29:51;;;;;;;6.30;3.78;;;;;;;;;;5025790;28;20749;-72
2022/04/26 07:32:17;;;;;;;7.03;3.80;;;;;;;;;;5025287;28;20032;-71
2022/04/26 07:34:42;;;;;;;5.40;3.67;;;;;;;;;;5025138;28;20030;-72
2022/04/26 07:37:08;;;;;;;4.65;3.80;;;;;;;;;;5025544;28;20506;-72
2022/04/26 07:39:35;;;;;;;4.53;3.65;;;;;;;;;;5024775;28;20029;-72
2022/04/26 07:42:02;;;;;;;4.50;3.33;;;;;;;;;;5024835;28;20396;-71
2022/04/26 07:44:28;;;;;;;5.47;3.85;;;;;;;;;;5025354;28;20013;-71
2022/04/26 07:46:54;;;;;;;5.45;4.40;;;;;;;;;;5024325;28;20032;-71
2022/04/26 07:49:21;;;;;;;6.25;4.20;;;;;;;;;;5027611;28;20034;-71
2022/04/26 07:51:47;;;;;;;4.68;3.38;;;;;;;;;;5024222;28;20541;-72
2022/04/26 07:54:13;;;;;;;5.10;3.95;;;;;;;;;;5025426;28;20022;-72
2022/04/26 07:56:39;;;;;;;5.47;4.38;;;;;;;;;;5023906;28;20030;-73
2022/04/26 07:59:04;;;;;;;6.60;4.88;;;;;;;;;;5026013;28;20025;-73
2022/04/26 08:01:35;;;;;;;4.88;3.72;;;;;;;;;;5034250;28;20025;-73
2022/04/26 08:04:00;;;;;;;6.32;4.47;;;;;;;;;;5033606;28;20049;-72
2022/04/26 08:06:26;;;;;;;5.30;3.85;;;;;;;;;;5025273;28;20427;-73
2022/04/26 08:08:53;;;;;;;6.75;5.10;;;;;;;;;;5025252;28;20403;-72
2022/04/26 08:11:20;;;;;;;6.03;4.95;;;;;;;;;;5026147;28;20023;-73
2022/04/26 08:13:46;;;;;;;10.90;5.40;;;;;;;;;;5023766;28;20032;-72
2022/04/26 08:16:12;;;;;;;10.05;6.15;;;;;;;;;;5030212;28;20025;-72
2022/04/26 08:18:37;;;;;;;8.48;6.70;;;;;;;;;;5027625;28;20202;-74
2022/04/26 08:21:06;;;;;;;9.05;6.72;;;;;;;;;;5027683;28;20032;-73
2022/04/26 08:23:33;;;;;;;9.20;6.93;;;;;;;;;;5028261;28;20025;-73
2022/04/26 08:28:43;;;;;;;12.48;7.43;;;;;;;;;;5026702;28;20036;-72
2022/04/26 08:31:09;;;;;;;11.75;7.40;;;;;;;;;;5026680;28;20140;-73
2022/04/26 08:33:35;;;;;;;10.95;7.85;;;;;;;;;;5026460;28;20559;-74
2022/04/26 08:36:01;;;;;;;13.40;9.02;;;;;;;;;;5024243;28;20033;-73
2022/04/26 08:38:26;;;;;;;13.52;8.68;;;;;;;;;;5021701;28;20056;-74
2022/04/26 08:40:52;;;;;;;14.75;9.70;;;;;;;;;;5025255;28;20487;-74
2022/04/26 08:43:17;;;;;;;12.93;9.20;;;;;;;;;;5026716;28;20463;-72
2022/04/26 08:45:45;;;;;;;11.98;9.02;;;;;;;;;;5024173;28;20033;-73
2022/04/26 08:51:04;;;;;;;15.75;10.65;;;;;;;;;;5019301;28;20023;-73
2022/04/26 08:53:32;;;;;;;17.25;11.02;;;;;;;;;;5024249;28;20036;-72
2022/04/26 08:56:01;;;;;;;17.23;11.38;;;;;;;;;;5027892;28;20308;-74
2022/04/26 08:58:31;;;;;;;16.90;10.95;;;;;;;;;;5025819;28;20383;-74
2022/04/26 09:01:05;;;;;;;16.15;10.52;;;;;;;;;;5024688;28;20403;-74
2022/04/26 09:03:31;;;;;;;17.75;10.88;;;;;;;;;;5022661;28;20025;-75
2022/04/26 09:06:05;;;;;;;17.88;11.63;;;;;;;;;;5023184;28;20526;-75
2022/04/26 09:08:31;;;;;;;17.85;12.00;;;;;;;;;;5047793;22;20736;-72
2022/04/26 09:10:56;;;;;;;16.95;11.45;;;;;;;;;;5030762;28;20124;-72
2022/04/26 09:13:23;;;;;;;16.73;10.95;;;;;;;;;;5039910;28;20112;-71
2022/04/26 09:15:54;;;;;;;20.27;12.00;;;;;;;;;;5043977;28;20020;-72
2022/04/26 09:18:29;;;;;;;18.27;12.40;;;;;;;;;;5026344;28;20021;-71
2022/04/26 09:21:07;;;;;;;21.90;13.05;;;;;;;;;;5014854;28;20028;-70
2022/04/26 09:23:33;;;;;;;17.42;12.00;;;;;;;;;;5023472;28;20526;-70
2022/04/26 09:25:58;;;;;;;20.00;13.15;;;;;;;;;;5022976;28;20041;-69
2022/04/26 09:28:29;;;;;;;20.30;13.02;;;;;;;;;;5022537;28;20029;-71
2022/04/26 09:30:56;;;;;;;22.05;14.15;;;;;;;;;;5031557;28;20010;-70
2022/04/26 09:33:30;;;;;;;18.77;12.40;;;;;;;;;;5019873;28;20040;-71
2022/04/26 09:36:03;;;;;;;19.73;12.90;;;;;;;;;;5023611;28;20025;-72
2022/04/26 09:38:37;;;;;;;20.77;12.82;;;;;;;;;;5023347;28;20083;-70
2022/04/26 09:41:05;;;;;;;21.15;15.70;;;;;;;;;;5022505;28;20297;-68
2022/04/26 09:43:32;;;;;;;23.85;14.20;;;;;;;;;;5022887;28;20514;-69
2022/04/26 09:45:58;;;;;;;24.83;14.90;;;;;;;;;;5022420;28;20033;-70
2022/04/26 09:48:28;;;;;;;23.10;14.50;;;;;;;;;;5029158;28;20029;-69
2022/04/26 09:50:54;;;;;;;23.65;14.85;;;;;;;;;;5023298;28;20022;-69
2022/04/26 09:53:19;;;;;;;27.98;16.75;;;;;;;;;;5021145;28;20048;-69
2022/04/26 09:55:47;;;;;;;25.77;15.40;;;;;;;;;;5023026;28;20044;-69
2022/04/26 09:58:17;;;;;;;26.13;15.93;;;;;;;;;;5021672;28;20029;-70
2022/04/26 10:00:44;;;;;;;34.60;19.85;;;;;;;;;;5020017;28;20033;-70
2022/04/26 10:03:15;;;;;;;27.35;17.02;;;;;;;;;;5023346;28;20280;-70
2022/04/26 10:05:41;;;;;;;25.75;16.02;;;;;;;;;;5022994;28;20032;-70
2022/04/26 10:08:07;;;;;;;21.70;14.02;;;;;;;;;;5021826;28;20022;-69
2022/04/26 10:10:32;;;;;;;20.02;14.18;;;;;;;;;;5022174;28;20018;-70
2022/04/26 10:15:43;;;;;;;17.25;11.82;;;;;;;;;;5032072;28;20031;-69
2022/04/26 10:18:32;;;;;;;19.40;13.35;;;;;;;;;;5032128;28;20387;-71
2022/04/26 10:20:59;;;;;;;15.32;11.23;;;;;;;;;;5033981;28;20518;-70
2022/04/26 10:23:24;;;;;;;16.42;12.18;;;;;;;;;;5034500;28;20021;-70
2022/04/26 10:26:21;;;;;;;13.95;10.93;;;;;;;;;;5038507;28;20032;-71
2022/04/26 10:29:06;;;;;;;14.07;10.55;;;;;;;;;;5045634;28;20035;-70
2022/04/26 10:32:00;;;;;;;15.15;11.65;;;;;;;;;;5046209;28;20091;-72
2022/04/26 10:34:29;;;;;;;12.60;9.43;;;;;;;;;;5045676;28;20025;-69
2022/04/26 10:37:06;;;;;;;17.38;12.93;;;;;;;;;;5046166;28;20021;-71
2022/04/26 10:39:42;;;;;;;19.15;12.77;;;;;;;;;;5045903;28;20020;-70
2022/04/26 10:42:17;;;;;;;20.13;13.95;;;;;;;;;;5046536;28;20114;-71
2022/04/26 10:44:44;;;;;;;17.42;12.05;;;;;;;;;;5047188;28;20021;-71
2022/04/26 10:47:09;;;;;;;18.75;13.18;;;;;;;;;;5049498;28;20274;-70
2022/04/26 10:49:35;;;;;;;13.73;10.43;;;;;;;;;;5049698;28;20051;-69
2022/04/26 10:52:13;;;;;;;6.28;5.07;;;;;;;;;;5050302;28;20098;-73
2022/04/26 10:55:03;;;;;;;5.13;4.40;;;;;;;;;;5049809;28;20064;-70
2022/04/26 10:57:35;;;;;;;5.22;4.70;;;;;;;;;;5049788;28;20036;-69
2022/04/26 11:00:05;;;;;;;5.32;4.50;;;;;;;;;;5049970;28;20025;-72
2022/04/26 11:02:35;;;;;;;5.90;5.30;;;;;;;;;;5032679;28;20313;-70
2022/04/26 11:05:09;;;;;;;5.57;4.80;;;;;;;;;;5025968;28;20144;-70
2022/04/26 11:07:35;;;;;;;7.65;5.80;;;;;;;;;;5027779;28;20447;-70
2022/04/26 11:10:01;;;;;;;5.00;4.30;;;;;;;;;;5029967;28;20483;-69
2022/04/26 11:12:32;;;;;;;6.03;4.55;;;;;;;;;;5029617;28;20036;-69
2022/04/26 11:15:03;;;;;;;4.15;3.67;;;;;;;;;;5028935;28;20075;-69
2022/04/26 11:17:29;;;;;;;6.70;5.28;;;;;;;;;;5028084;28;20037;-68
2022/04/26 11:19:57;;;;;;;7.60;4.85;;;;;;;;;;5028270;28;20029;-69
2022/04/26 11:22:24;;;;;;;6.80;4.60;;;;;;;;;;5033006;28;20494;-69
2022/04/26 11:28:00;;;;;;;4.82;4.32;;;;;;;;;;5026042;28;20095;-69
2022/04/26 11:30:54;;;;;;;4.00;3.33;;;;;;;;;;5027899;28;20079;-69
2022/04/26 11:33:24;;;;;;;4.32;3.92;;;;;;;;;;5028830;28;20022;-71
2022/04/26 11:35:53;;;;;;;4.63;4.13;;;;;;;;;;5029168;28;20032;-70
2022/04/26 11:38:19;;;;;;;8.25;4.60;;;;;;;;;;5029187;28;20084;-70
2022/04/26 11:40:54;;;;;;;6.10;4.53;;;;;;;;;;5027786;28;20037;-68
2022/04/26 11:43:26;;;;;;;7.70;5.10;;;;;;;;;;5040970;28;20127;-70
2022/04/26 11:45:53;;;;;;;4.75;4.15;;;;;;;;;;5028034;28;20031;-69
2022/04/26 11:48:24;;;;;;;4.90;3.83;;;;;;;;;;5029759;28;20041;-69
2022/04/26 11:50:50;;;;;;;5.28;4.20;;;;;;;;;;5028435;28;20442;-68
2022/04/26 11:53:18;;;;;;;6.10;4.32;;;;;;;;;;5028607;28;20028;-68
2022/04/26 11:55:46;;;;;;;5.75;4.82;;;;;;;;;;5031641;28;20044;-68
2022/04/26 11:58:18;;;;;;;6.55;5.18;;;;;;;;;;5023764;28;20065;-68
2022/04/26 12:00:52;;;;;;;4.82;4.15;;;;;;;;;;5026844;28;20026;-68
2022/04/26 12:03:20;;;;;;;6.35;5.35;;;;;;;;;;5027918;28;20022;-69
2022/04/26 12:05:49;;;;;;;10.07;7.00;;;;;;;;;;5030223;28;20487;-69
2022/04/26 12:08:15;;;;;;;10.25;7.68;;;;;;;;;;5027734;28;20108;-69
2022/04/26 12:10:41;;;;;;;9.90;7.00;;;;;;;;;;5029763;28;20601;-69
2022/04/26 12:13:06;;;;;;;11.27;8.25;;;;;;;;;;5028559;28;20426;-69
2022/04/26 12:15:39;;;;;;;10.75;8.05;;;;;;;;;;5028213;28;20438;-71
2022/04/26 12:18:15;;;;;;;12.00;8.57;;;;;;;;;;5033317;28;20061;-69
2022/04/26 12:21:02;;;;;;;11.07;8.57;;;;;;;;;;5026699;28;20072;-69
2022/04/26 12:23:28;;;;;;;12.02;8.20;;;;;;;;;;5028242;28;20071;-69
2022/04/26 12:26:00;;;;;;;11.93;8.70;;;;;;;;;;5027766;28;20110;-69
2022/04/26 12:28:25;;;;;;;12.20;8.77;;;;;;;;;;5026621;28;20087;-68
2022/04/26 12:30:51;;;;;;;10.32;7.95;;;;;;;;;;5026588;28;20064;-69
2022/04/26 12:33:31;;;;;;;10.95;7.60;;;;;;;;;;5027342;28;20036;-69
2022/04/26 12:36:05;;;;;;;10.75;8.27;;;;;;;;;;5025720;28;20391;-69
2022/04/26 12:38:43;;;;;;;10.73;8.15;;;;;;;;;;5026746;28;20032;-70
2022/04/26 12:41:09;;;;;;;11.00;8.20;;;;;;;;;;5024483;28;20032;-69
2022/04/26 12:43:34;;;;;;;10.93;8.27;;;;;;;;;;5027715;28;20403;-70
2022/04/26 12:46:02;;;;;;;10.60;8.25;;;;;;;;;;5027682;28;20162;-69
2022/04/26 12:51:21;;;;;;;11.13;8.70;;;;;;;;;;5024879;28;20139;-70
2022/04/26 12:53:50;;;;;;;11.15;8.23;;;;;;;;;;5027365;28;20025;-70
2022/04/26 12:56:16;;;;;;;13.40;7.78;;;;;;;;;;5027251;28;20017;-69
2022/04/26 12:58:44;;;;;;;10.65;8.13;;;;;;;;;;5042280;28;20037;-70
2022/04/26 13:01:10;;;;;;;10.18;6.93;;;;;;;;;;5024514;28;20022;-71
2022/04/26 13:03:37;;;;;;;8.90;6.97;;;;;;;;;;5022384;28;20024;-69
2022/04/26 13:06:11;;;;;;;9.07;6.43;;;;;;;;;;5030326;28;20290;-70
2022/04/26 13:08:38;;;;;;;9.30;6.15;;;;;;;;;;5025540;28;20329;-71
2022/04/26 13:11:04;;;;;;;9.18;6.75;;;;;;;;;;5026430;28;20507;-68
2022/04/26 13:13:30;;;;;;;10.05;7.03;;;;;;;;;;5027049;28;20116;-69
2022/04/26 13:15:55;;;;;;;8.65;6.60;;;;;;;;;;5025539;28;20655;-73
2022/04/26 13:18:21;;;;;;;8.63;6.65;;;;;;;;;;5025639;28;20064;-71
2022/04/26 13:20:47;;;;;;;8.98;6.90;;;;;;;;;;5026283;28;20029;-73
2022/04/26 13:23:16;;;;;;;10.85;7.50;;;;;;;;;;5026600;28;20025;-72
2022/04/26 13:25:42;;;;;;;11.00;6.88;;;;;;;;;;5022413;28;20497;-72
2022/04/26 13:28:08;;;;;;;10.65;6.95;;;;;;;;;;5025295;28;20056;-72
2022/04/26 13:30:35;;;;;;;12.52;7.47;;;;;;;;;;5024878;28;20033;-74
2022/04/26 13:33:01;;;;;;;8.18;6.43;;;;;;;;;;5026314;28;20433;-73
2022/04/26 13:35:26;;;;;;;14.25;8.75;;;;;;;;;;5027155;28;20090;-74
2022/04/26 13:37:52;;;;;;;14.40;8.77;;;;;;;;;;5024878;28;20021;-72
2022/04/26 13:40:19;;;;;;;15.95;10.13;;;;;;;;;;5026670;28;20103;-71
2022/04/26 13:42:45;;;;;;;14.40;10.07;;;;;;;;;;5026809;28;20071;-72
2022/04/26 13:45:10;;;;;;;19.20;11.48;;;;;;;;;;5026222;28;20491;-70
2022/04/26 13:47:37;;;;;;;15.50;10.18;;;;;;;;;;5026061;28;20037;-72
2022/04/26 13:50:05;;;;;;;16.08;10.50;;;;;;;;;;5028041;28;20390;-74
2022/04/26 13:52:30;;;;;;;15.40;10.20;;;;;;;;;;5028821;28;20052;-71
2022/04/26 13:54:56;;;;;;;17.42;10.23;;;;;;;;;;5027013;28;20038;-76
2022/04/26 13:57:21;;;;;;;16.35;11.02;;;;;;;;;;5025454;28;20024;-72
2022/04/26 13:59:46;;;;;;;15.88;9.77;;;;;;;;;;5024166;28;20083;-75
2022/04/26 14:02:12;;;;;;;20.33;11.70;;;;;;;;;;5025838;28;20025;-75
2022/04/26 14:04:38;;;;;;;19.52;10.68;;;;;;;;;;5026244;28;20491;-74
2022/04/26 14:07:04;;;;;;;16.52;10.93;;;;;;;;;;5025781;28;20079;-73
2022/04/26 14:09:30;;;;;;;16.63;10.73;;;;;;;;;;5023446;28;20032;-74
2022/04/26 14:11:55;;;;;;;17.85;11.10;;;;;;;;;;5025011;28;20033;-73
2022/04/26 14:22:33;;;;;;;14.23;10.77;;;;;;;;;;5028417;28;20040;-75
2022/04/26 14:25:03;;;;;;;13.40;9.25;;;;;;;;;;5029981;28;20017;-71
2022/04/26 14:27:29;;;;;;;16.83;10.15;;;;;;;;;;5028451;28;20037;-77
2022/04/26 14:29:55;;;;;;;15.50;9.82;;;;;;;;;;5034762;28;20057;-72
2022/04/26 14:32:20;;;;;;;14.18;9.65;;;;;;;;;;5028257;28;20111;-72
2022/04/26 14:34:46;;;;;;;19.05;11.30;;;;;;;;;;5029732;28;20108;-74
2022/04/26 14:37:12;;;;;;;19.63;11.38;;;;;;;;;;5028939;28;20025;-74
2022/04/26 14:39:38;;;;;;;17.83;11.82;;;;;;;;;;5034223;28;20045;-74
2022/04/26 14:42:04;;;;;;;16.10;11.50;;;;;;;;;;5029980;28;20032;-75
2022/04/26 14:44:29;;;;;;;20.08;13.10;;;;;;;;;;5030424;28;20031;-75
2022/04/26 14:46:54;;;;;;;18.95;12.88;;;;;;;;;;5030628;28;20064;-77
2022/04/26 14:49:20;;;;;;;19.00;11.50;;;;;;;;;;5030043;28;20033;-77
2022/04/26 14:51:46;;;;;;;26.88;16.58;;;;;;;;;;5037631;28;20451;-78
2022/04/26 14:54:12;;;;;;;20.30;12.85;;;;;;;;;;5031048;28;20515;-78
2022/04/26 14:56:37;;;;;;;21.02;12.98;;;;;;;;;;5029455;28;20135;-75
2022/04/26 14:59:03;;;;;;;22.10;14.52;;;;;;;;;;5027719;28;20445;-76
2022/04/26 15:01:30;;;;;;;18.42;12.25;;;;;;;;;;5030548;28;20017;-76
2022/04/26 15:03:56;;;;;;;22.38;13.20;;;;;;;;;;5028760;28;20021;-75
2022/04/26 15:06:22;;;;;;;21.90;14.07;;;;;;;;;;5030129;28;20498;-75
2022/04/26 15:11:31;;;;;;;28.00;17.05;;;;;;;;;;5029048;28;20087;-75
2022/04/26 15:16:42;;;;;;;23.63;15.75;;;;;;;;;;5027441;28;20099;-75
2022/04/26 15:19:10;;;;;;;24.67;14.90;;;;;;;;;;5027802;28;20029;-72
2022/04/26 15:21:37;;;;;;;24.05;14.68;;;;;;;;;;5029571;28;20142;-75
2022/04/26 15:24:03;;;;;;;25.20;16.02;;;;;;;;;;5027698;28;20518;-74
2022/04/26 15:26:29;;;;;;;28.35;16.92;;;;;;;;;;5028597;28;20063;-73
2022/04/26 15:28:55;;;;;;;26.67;15.75;;;;;;;;;;5028338;28;20117;-74
2022/04/26 15:31:21;;;;;;;26.50;17.48;;;;;;;;;;5027592;28;20021;-75
2022/04/26 15:33:48;;;;;;;26.50;16.40;;;;;;;;;;5030250;28;20033;-73
2022/04/26 15:36:14;;;;;;;25.08;16.77;;;;;;;;;;5028067;28;20399;-72
2022/04/26 15:38:40;;;;;;;24.05;14.98;;;;;;;;;;5028796;28;20021;-72
2022/04/26 15:41:05;;;;;;;26.40;16.25;;;;;;;;;;5028664;28;20029;-73
2022/04/26 15:43:32;;;;;;;26.05;16.15;;;;;;;;;;5037927;28;20029;-72
2022/04/26 15:45:58;;;;;;;24.30;15.55;;;;;;;;;;5048789;28;20074;-75
2022/04/26 15:48:24;;;;;;;25.60;14.73;;;;;;;;;;5049076;28;20520;-72
2022/04/26 15:50:51;;;;;;;22.42;14.82;;;;;;;;;;5048837;28;20241;-70
2022/04/26 15:53:16;;;;;;;20.63;14.07;;;;;;;;;;5048889;28;20025;-73
2022/04/26 15:55:41;;;;;;;21.70;14.45;;;;;;;;;;5036714;28;20097;-73
2022/04/26 15:58:08;;;;;;;22.83;14.00;;;;;;;;;;5028668;28;20048;-72
2022/04/26 16:00:33;;;;;;;19.75;13.35;;;;;;;;;;5029361;28;20075;-72
2022/04/26 16:02:59;;;;;;;24.92;15.27;;;;;;;;;;5028893;28;20741;-72
2022/04/26 16:05:24;;;;;;;23.35;15.02;;;;;;;;;;5028785;28;20025;-73
2022/04/26 16:07:51;;;;;;;23.70;14.68;;;;;;;;;;5029173;28;20026;-73
2022/04/26 16:21:12;;;;;;;15.27;9.52;;;;;;;;;;5029735;28;20405;-74
2022/04/26 16:23:38;;;;;;;15.07;10.23;;;;;;;;;;5028952;28;20025;-73
2022/04/26 16:26:05;;;;;;;14.13;9.55;;;;;;;;;;5028295;28;20116;-73
2022/04/26 16:28:32;;;;;;;11.07;7.75;;;;;;;;;;5028050;28;20025;-72
2022/04/26 16:30:58;;;;;;;11.05;7.53;;;;;;;;;;5028954;28;20183;-73
2022/04/26 16:33:24;;;;;;;11.10;8.45;;;;;;;;;;5032630;28;20033;-74
2022/04/26 16:35:49;;;;;;;13.85;8.88;;;;;;;;;;5048266;28;20183;-73
2022/04/26 16:38:17;;;;;;;11.65;7.43;;;;;;;;;;5047858;28;20048;-74
2022/04/26 16:40:44;;;;;;;9.65;7.18;;;;;;;;;;5048034;28;20397;-73
2022/04/26 16:43:10;;;;;;;10.70;7.05;;;;;;;;;;5047827;28;20075;-73
2022/04/26 16:45:35;;;;;;;8.07;5.32;;;;;;;;;;5048553;28;20510;-73
2022/04/26 16:48:01;;;;;;;6.40;5.15;;;;;;;;;;5047675;28;20374;-73
2022/04/26 16:50:26;;;;;;;5.80;4.63;;;;;;;;;;5046666;28;20056;-73
2022/04/26 16:52:52;;;;;;;7.07;5.40;;;;;;;;;;5045982;28;20029;-73
2022/04/26 16:55:17;;;;;;;6.68;4.45;;;;;;;;;;5047774;28;20021;-73
2022/04/26 16:57:43;;;;;;;7.05;5.20;;;;;;;;;;5048286;28;20025;-73
2022/04/26 17:00:08;;;;;;;6.25;4.53;;;;;;;;;;5047358;28;20028;-73
2022/04/26 17:02:34;;;;;;;7.38;4.85;;;;;;;;;;5048053;28;20025;-73
2022/04/26 17:04:59;;;;;;;5.95;4.35;;;;;;;;;;5031808;28;20533;-73
2022/04/26 17:07:25;;;;;;;6.70;4.38;;;;;;;;;;5026940;28;20048;-73
2022/04/26 17:09:52;;;;;;;6.82;4.85;;;;;;;;;;5047756;28;20509;-73
2022/04/26 17:12:17;;;;;;;5.30;4.15;;;;;;;;;;5047387;28;20029;-72
2022/04/26 17:14:42;;;;;;;5.70;4.15;;;;;;;;;;5047243;28;20025;-73
2022/04/26 17:17:08;;;;;;;6.40;4.30;;;;;;;;;;5047874;28;20032;-72
2022/04/26 17:19:34;;;;;;;5.80;4.20;;;;;;;;;;5046830;28;20052;-72
2022/04/26 17:22:01;;;;;;;5.93;4.28;;;;;;;;;;5040764;28;20399;-73
2022/04/26 17:27:11;;;;;;;6.85;4.15;;;;;;;;;;5027881;28;20526;-73
2022/04/26 17:29:37;;;;;;;4.97;3.92;;;;;;;;;;5026870;28;20471;-72
2022/04/26 17:32:02;;;;;;;4.78;3.60;;;;;;;;;;5027109;28;20028;-75
2022/04/26 17:34:28;;;;;;;6.07;3.80;;;;;;;;;;5027762;28;20036;-73
2022/04/26 17:36:53;;;;;;;5.38;3.88;;;;;;;;;;5035570;28;20037;-73
2022/04/26 17:39:20;;;;;;;5.50;3.40;;;;;;;;;;5045359;28;20129;-72
2022/04/26 17:41:47;;;;;;;4.03;3.40;;;;;;;;;;5047163;28;20024;-73
2022/04/26 17:44:13;;;;;;;6.35;3.60;;;;;;;;;;5046795;28;20029;-73
2022/04/26 17:46:40;;;;;;;6.43;3.80;;;;;;;;;;5047635;28;20104;-73
2022/04/26 17:49:06;;;;;;;5.50;3.80;;;;;;;;;;5046542;28;20025;-73
2022/04/26 17:51:31;;;;;;;5.30;3.38;;;;;;;;;;5030435;28;20025;-73
2022/04/26 17:56:41;;;;;;;5.93;3.38;;;;;;;;;;5027448;28;20048;-75
2022/04/26 17:59:07;;;;;;;4.47;3.42;;;;;;;;;;5026660;28;20483;-75
2022/04/26 18:01:34;;;;;;;5.47;3.67;;;;;;;;;;5026602;28;20079;-74
2022/04/26 18:04:03;;;;;;;6.53;3.78;;;;;;;;;;5032496;28;20478;-75
2022/04/26 18:06:29;;;;;;;4.03;3.20;;;;;;;;;;5047228;28;20437;-75
2022/04/26 18:08:54;;;;;;;3.67;2.95;;;;;;;;;;5046644;28;20093;-75
2022/04/26 18:11:20;;;;;;;3.33;2.85;;;;;;;;;;5041420;28;20033;-75
2022/04/26 18:13:47;;;;;;;4.85;3.22;;;;;;;;;;5026805;28;20017;-75
2022/04/26 18:16:12;;;;;;;3.95;3.08;;;;;;;;;;5026540;28;20033;-75
2022/04/26 18:18:37;;;;;;;5.22;3.45;;;;;;;;;;5026909;28;20021;-75
2022/04/26 18:21:03;;;;;;;6.68;3.33;;;;;;;;;;5026357;28;20026;-74
2022/04/26 18:23:29;;;;;;;5.10;3.47;;;;;;;;;;5027148;28;20491;-75
2022/04/26 18:26:15;;;;;;;7.63;4.70;;;;;;;;;;5026848;28;20052;-74
2022/04/26 18:28:56;;;;;;;7.25;5.03;;;;;;;;;;5026045;28;20433;-74
2022/04/26 18:31:23;;;;;;;9.55;5.82;;;;;;;;;;5027046;28;20441;-76
2022/04/26 18:33:49;;;;;;;7.43;5.28;;;;;;;;;;5026446;28;20049;-76
2022/04/26 18:36:17;;;;;;;8.40;6.30;;;;;;;;;;5026411;28;20411;-77
2022/04/26 18:38:45;;;;;;;8.82;5.70;;;;;;;;;;5026531;28;20054;-76
2022/04/26 18:41:12;;;;;;;6.60;4.72;;;;;;;;;;5026833;28;20022;-76
2022/04/26 18:43:38;;;;;;;4.28;3.55;;;;;;;;;;5026334;28;20181;-76
2022/04/26 18:46:04;;;;;;;6.32;4.10;;;;;;;;;;5028722;28;20064;-76
2022/04/26 18:48:30;;;;;;;8.02;4.05;;;;;;;;;;5027038;28;20560;-76
2022/04/26 18:50:56;;;;;;;5.07;4.00;;;;;;;;;;5026141;28;20033;-77
2022/04/26 18:53:22;;;;;;;5.60;3.70;;;;;;;;;;5026312;28;20053;-77
2022/04/26 18:55:49;;;;;;;5.00;3.45;;;;;;;;;;5025999;28;20395;-76